createdAt,value
2023-01-01T00:00:24.370Z,5.90
2023-01-01T00:01:24.348Z,5.20
2023-01-01T00:02:24.429Z,6.30
2023-01-01T00:03:24.355Z,4.60
2023-01-01T00:04:24.318Z,5.20
2023-01-01T00:05:24.348Z,5.30
2023-01-01T00:06:24.317Z,5.30
2023-01-01T00:07:24.328Z,6.50
2023-01-01T00:08:24.342Z,5.40
2023-01-01T00:09:24.265Z,6.70
2023-01-01T00:10:24.272Z,7.20
2023-01-01T00:11:24.384Z,4.10
2023-01-01T00:12:24.234Z,6.20
2023-01-01T00:13:24.270Z,7.90
2023-01-01T00:14:24.311Z,6.80
2023-01-01T00:15:24.218Z,8.20
2023-01-01T00:16:24.236Z,7.60
2023-01-01T00:17:25.023Z,6.10
2023-01-01T00:18:24.192Z,6.80
2023-01-01T00:19:24.272Z,5.50
2023-01-01T00:20:26.603Z,6.70
2023-01-01T00:21:24.191Z,6.60
2023-01-01T00:23:27.143Z,5.80
2023-01-01T00:26:21.759Z,8.50
2023-01-01T00:27:28.786Z,8.00
2023-01-01T00:28:21.751Z,5.20
2023-01-01T00:29:54.817Z,6.10
2023-01-01T00:30:22.904Z,8.90
2023-01-01T00:31:54.873Z,5.30
2023-01-01T00:32:56.284Z,6.10
2023-01-01T00:33:54.768Z,7.10
2023-01-01T00:34:54.752Z,7.30
2023-01-01T00:35:22.855Z,5.80
2023-01-01T00:36:22.838Z,6.50
2023-01-01T00:37:54.756Z,5.90
2023-01-01T00:38:22.807Z,6.80
2023-01-01T00:39:54.753Z,5.00
2023-01-01T00:40:22.829Z,6.90
2023-01-01T00:41:54.697Z,4.80
2023-01-01T00:42:22.804Z,7.50
2023-01-01T00:43:22.762Z,6.00
2023-01-01T00:44:22.785Z,6.80
2023-01-01T00:45:23.228Z,7.60
2023-01-01T00:46:22.821Z,7.10
2023-01-01T00:47:22.746Z,5.10
2023-01-01T00:48:22.794Z,7.60
2023-01-01T00:49:22.722Z,6.00
2023-01-01T00:51:41.283Z,5.10
2023-01-01T00:52:41.315Z,7.50
2023-01-01T00:53:42.413Z,6.60
2023-01-01T00:54:42.418Z,7.80
2023-01-01T00:55:42.397Z,8.30
2023-01-01T00:56:42.436Z,5.10
2023-01-01T00:57:42.368Z,6.50
2023-01-01T00:58:42.380Z,6.90
2023-01-01T00:59:42.418Z,10.30
2023-01-01T01:00:42.350Z,13.50
2023-01-01T01:01:42.530Z,10.80
2023-01-01T01:02:42.468Z,11.70
2023-01-01T01:03:42.381Z,11.30
2023-01-01T01:04:42.310Z,13.50
2023-01-01T01:05:42.330Z,13.50
2023-01-01T01:06:42.343Z,11.10
2023-01-01T01:07:42.304Z,11.10
2023-01-01T01:08:42.358Z,9.10
2023-01-01T01:09:42.307Z,9.70
2023-01-01T01:10:42.346Z,7.70
2023-01-01T01:11:42.275Z,13.10
2023-01-01T01:12:43.308Z,8.80
2023-01-01T01:13:42.288Z,11.30
2023-01-01T01:14:42.225Z,7.80
2023-01-01T01:15:42.292Z,8.40
2023-01-01T01:16:42.288Z,8.50
2023-01-01T01:17:42.214Z,9.10
2023-01-01T01:18:42.318Z,9.30
2023-01-01T01:19:42.214Z,7.70
2023-01-01T01:20:42.259Z,7.40
2023-01-01T01:21:42.209Z,8.20
2023-01-01T01:22:42.216Z,12.10
2023-01-01T01:23:42.184Z,14.10
2023-01-01T01:24:42.248Z,12.80
2023-01-01T01:25:42.193Z,11.30
2023-01-01T01:26:42.206Z,9.90
2023-01-01T01:27:42.138Z,10.60
2023-01-01T01:28:47.215Z,8.30
2023-01-01T01:29:44.175Z,10.10
2023-01-01T01:30:42.177Z,7.30
2023-01-01T01:31:42.096Z,7.30
2023-01-01T01:32:42.091Z,8.50
2023-01-01T01:33:42.228Z,8.60
2023-01-01T01:34:42.091Z,8.40
2023-01-01T01:35:42.106Z,10.90
2023-01-01T01:36:42.058Z,8.80
2023-01-01T01:37:42.056Z,6.80
2023-01-01T01:38:42.083Z,6.40
2023-01-01T01:39:42.053Z,6.80
2023-01-01T01:40:42.034Z,7.00
2023-01-01T01:41:43.025Z,7.00
2023-01-01T01:42:42.016Z,8.00
2023-01-01T01:43:42.062Z,6.40
2023-01-01T01:44:42.011Z,8.60
2023-01-01T01:45:42.094Z,7.70
2023-01-01T01:46:41.995Z,9.90
2023-01-01T01:47:41.994Z,10.10
2023-01-01T01:48:41.970Z,7.30
2023-01-01T01:49:42.545Z,8.00
2023-01-01T01:50:41.990Z,9.70
2023-01-01T01:51:41.953Z,8.50
2023-01-01T01:52:41.957Z,9.30
2023-01-01T01:53:41.929Z,10.70
2023-01-01T01:54:42.017Z,7.30
2023-01-01T01:55:42.031Z,7.70
2023-01-01T01:56:41.905Z,7.50
2023-01-01T01:57:41.912Z,8.10
2023-01-01T01:58:41.998Z,8.80
2023-01-01T01:59:41.918Z,8.50
2023-01-01T02:00:41.882Z,9.90
2023-01-01T02:01:41.975Z,11.00
2023-01-01T02:02:41.998Z,11.30
2023-01-01T02:03:41.875Z,9.40
2023-01-01T02:04:41.851Z,9.00
2023-01-01T02:05:41.863Z,8.80
2023-01-01T02:06:41.843Z,10.70
2023-01-01T02:07:41.858Z,9.80
2023-01-01T02:08:41.841Z,11.50
2023-01-01T02:09:41.816Z,8.40
2023-01-01T02:10:41.821Z,10.70
2023-01-01T02:11:41.780Z,9.00
2023-01-01T02:12:41.804Z,11.60
2023-01-01T02:14:13.707Z,9.40
2023-01-01T02:14:43.552Z,10.50
2023-01-01T02:15:41.867Z,7.20
2023-01-01T02:16:41.768Z,10.30
2023-01-01T02:17:41.733Z,9.30
2023-01-01T02:18:41.744Z,11.50
2023-01-01T02:19:41.717Z,8.90
2023-01-01T02:20:41.719Z,8.60
2023-01-01T02:21:41.731Z,7.60
2023-01-01T02:22:41.705Z,11.10
2023-01-01T02:23:41.704Z,10.00
2023-01-01T02:24:41.670Z,15.90
2023-01-01T02:25:41.667Z,12.40
2023-01-01T02:26:41.663Z,9.70
2023-01-01T02:27:41.714Z,10.00
2023-01-01T02:28:41.693Z,7.80
2023-01-01T02:29:41.655Z,9.50
2023-01-01T02:30:41.687Z,8.30
2023-01-01T02:31:41.805Z,11.50
2023-01-01T02:32:41.654Z,7.30
2023-01-01T02:33:41.641Z,8.90
2023-01-01T02:34:42.102Z,13.00
2023-01-01T02:35:41.599Z,11.40
2023-01-01T02:36:41.614Z,10.40
2023-01-01T02:37:41.577Z,12.40
2023-01-01T02:38:41.594Z,12.40
2023-01-01T02:39:41.572Z,10.60
2023-01-01T02:40:41.586Z,9.80
2023-01-01T02:41:41.572Z,10.60
2023-01-01T02:42:41.554Z,11.80
2023-01-01T02:43:41.535Z,9.60
2023-01-01T02:44:41.529Z,9.90
2023-01-01T02:45:41.567Z,12.10
2023-01-01T02:46:41.523Z,15.20
2023-01-01T02:47:41.499Z,13.10
2023-01-01T02:48:41.527Z,9.20
2023-01-01T02:49:41.514Z,12.30
2023-01-01T02:50:41.488Z,9.80
2023-01-01T02:51:41.475Z,11.70
2023-01-01T02:52:41.476Z,9.80
2023-01-01T02:53:41.471Z,12.80
2023-01-01T02:54:41.477Z,11.00
2023-01-01T02:55:41.437Z,11.50
2023-01-01T02:56:41.441Z,11.80
2023-01-01T02:57:41.479Z,13.40
2023-01-01T02:58:41.417Z,14.40
2023-01-01T02:59:41.393Z,15.10
2023-01-01T03:00:41.421Z,14.00
2023-01-01T03:01:41.537Z,16.60
2023-01-01T03:02:45.340Z,13.70
2023-01-01T03:03:43.420Z,14.00
2023-01-01T03:04:41.392Z,13.00
2023-01-01T03:05:41.388Z,12.20
2023-01-01T03:06:41.347Z,13.90
2023-01-01T03:07:41.348Z,14.60
2023-01-01T03:08:41.321Z,17.60
2023-01-01T03:09:42.346Z,14.50
2023-01-01T03:10:41.352Z,15.20
2023-01-01T03:11:41.314Z,13.40
2023-01-01T03:12:41.332Z,11.30
2023-01-01T03:13:41.300Z,13.00
2023-01-01T03:14:41.297Z,13.30
2023-01-01T03:15:41.306Z,13.20
2023-01-01T03:16:41.308Z,15.90
2023-01-01T03:17:41.292Z,16.30
2023-01-01T03:18:41.279Z,14.10
2023-01-01T03:19:41.268Z,14.30
2023-01-01T03:20:41.274Z,15.60
2023-01-01T03:21:41.289Z,14.90
2023-01-01T03:23:25.700Z,14.50
2023-01-01T03:24:25.705Z,15.50
2023-01-01T03:25:28.838Z,13.30
2023-01-01T03:26:26.870Z,13.20
2023-01-01T03:27:26.880Z,15.20
2023-01-01T03:28:26.877Z,12.00
2023-01-01T03:29:26.871Z,14.40
2023-01-01T03:30:26.803Z,16.30
2023-01-01T03:31:26.891Z,16.20
2023-01-01T03:32:26.812Z,16.40
2023-01-01T03:33:26.814Z,15.60
2023-01-01T03:34:26.788Z,15.10
2023-01-01T03:35:26.788Z,17.00
2023-01-01T03:36:26.768Z,17.90
2023-01-01T03:37:26.777Z,16.20
2023-01-01T03:38:26.820Z,15.90
2023-01-01T03:39:26.779Z,13.90
2023-01-01T03:40:26.758Z,16.70
2023-01-01T03:41:26.714Z,14.60
2023-01-01T03:42:26.707Z,15.30
2023-01-01T03:43:27.444Z,17.10
2023-01-01T03:44:26.697Z,14.80
2023-01-01T03:45:26.684Z,16.80
2023-01-01T03:46:26.736Z,14.30
2023-01-01T04:02:36.245Z,13.80
2023-01-01T04:03:36.136Z,14.00
2023-01-01T04:04:36.148Z,14.20
2023-01-01T04:05:36.125Z,14.70
2023-01-01T04:06:36.123Z,12.50
2023-01-01T04:07:37.253Z,14.00
2023-01-01T04:08:37.240Z,15.40
2023-01-01T04:09:37.253Z,14.20
2023-01-01T04:10:37.254Z,16.40
2023-01-01T04:11:37.220Z,15.80
2023-01-01T04:12:37.215Z,14.60
2023-01-01T04:13:37.182Z,11.60
2023-01-01T04:14:37.198Z,14.30
2023-01-01T04:15:37.216Z,14.50
2023-01-01T04:16:37.203Z,14.40
2023-01-01T04:17:37.184Z,12.00
2023-01-01T04:18:37.180Z,12.60
2023-01-01T04:19:37.164Z,12.30
2023-01-01T04:20:37.147Z,12.00
2023-01-01T04:21:37.126Z,11.00
2023-01-01T04:22:37.156Z,11.90
2023-01-01T04:23:37.133Z,13.00
2023-01-01T04:24:37.109Z,10.70
2023-01-01T04:25:37.114Z,10.30
2023-01-01T04:26:37.085Z,10.40
2023-01-01T04:27:37.104Z,13.50
2023-01-01T04:28:37.074Z,13.20
2023-01-01T04:29:37.069Z,13.50
2023-01-01T04:31:21.538Z,10.10
2023-01-01T04:32:21.526Z,8.60
2023-01-01T04:33:21.548Z,11.70
2023-01-01T04:34:21.529Z,12.20
2023-01-01T04:35:21.529Z,9.20
2023-01-01T04:36:22.148Z,9.00
2023-01-01T04:37:21.500Z,9.90
2023-01-01T04:38:21.507Z,8.10
2023-01-01T04:39:21.496Z,9.20
2023-01-01T04:40:21.490Z,10.00
2023-01-01T04:41:21.490Z,14.80
2023-01-01T04:42:21.444Z,8.10
2023-01-01T04:43:21.472Z,8.50
2023-01-01T04:44:22.574Z,10.00
2023-01-01T04:45:22.847Z,8.40
2023-01-01T04:46:22.569Z,10.50
2023-01-01T04:47:22.587Z,8.40
2023-01-01T04:48:22.551Z,6.30
2023-01-01T04:49:22.583Z,9.40
2023-01-01T04:50:22.558Z,10.90
2023-01-01T04:51:22.538Z,10.50
2023-01-01T04:52:22.519Z,15.90
2023-01-01T04:53:22.514Z,9.40
2023-01-01T04:54:23.297Z,7.30
2023-01-01T04:55:22.533Z,11.30
2023-01-01T04:56:22.494Z,8.10
2023-01-01T04:57:22.492Z,9.30
2023-01-01T04:58:22.489Z,10.30
2023-01-01T04:59:22.486Z,10.10
2023-01-01T05:00:22.496Z,9.10
2023-01-01T05:01:22.539Z,9.20
2023-01-01T05:02:22.625Z,8.00
2023-01-01T05:03:22.505Z,8.30
2023-01-01T05:04:22.481Z,7.60
2023-01-01T05:05:22.468Z,8.10
2023-01-01T05:06:22.442Z,7.80
2023-01-01T05:07:22.403Z,8.50
2023-01-01T05:08:22.387Z,8.80
2023-01-01T05:09:23.385Z,10.80
2023-01-01T05:10:22.401Z,10.60
2023-01-01T05:11:22.376Z,7.50
2023-01-01T05:12:23.248Z,7.80
2023-01-01T05:13:22.363Z,7.50
2023-01-01T05:14:22.351Z,7.40
2023-01-01T05:15:22.339Z,8.00
2023-01-01T05:16:22.411Z,13.10
2023-01-01T05:17:22.349Z,7.60
2023-01-01T05:18:22.314Z,7.90
2023-01-01T05:19:22.311Z,8.80
2023-01-01T05:20:22.317Z,7.30
2023-01-01T05:21:22.415Z,6.70
2023-01-01T05:22:22.300Z,8.80
2023-01-01T05:23:22.276Z,7.40
2023-01-01T05:24:23.270Z,9.30
2023-01-01T05:25:22.268Z,7.80
2023-01-01T05:26:22.253Z,9.80
2023-01-01T05:27:22.284Z,8.50
2023-01-01T05:28:22.251Z,9.10
2023-01-01T05:29:22.235Z,7.50
2023-01-01T05:30:22.763Z,8.10
2023-01-01T05:31:22.267Z,7.10
2023-01-01T05:32:22.227Z,6.50
2023-01-01T05:33:22.205Z,7.90
2023-01-01T05:34:22.201Z,6.40
2023-01-01T05:35:26.327Z,7.20
2023-01-01T05:36:23.179Z,5.90
2023-01-01T05:37:22.213Z,6.60
2023-01-01T05:38:22.191Z,10.70
2023-01-01T05:39:22.207Z,6.60
2023-01-01T05:40:22.149Z,10.10
2023-01-01T05:41:22.152Z,6.50
2023-01-01T05:42:22.173Z,8.00
2023-01-01T05:43:22.125Z,8.50
2023-01-01T05:44:22.199Z,5.80
2023-01-01T05:45:22.109Z,6.10
2023-01-01T05:46:22.132Z,5.80
2023-01-01T05:47:22.101Z,7.20
2023-01-01T05:48:22.168Z,6.40
2023-01-01T05:49:22.076Z,7.70
2023-01-01T05:50:22.091Z,6.90
2023-01-01T05:51:22.078Z,7.10
2023-01-01T05:52:26.493Z,9.80
2023-01-01T05:53:24.074Z,11.60
2023-01-01T05:54:22.062Z,8.70
2023-01-01T05:55:22.040Z,5.80
2023-01-01T05:56:22.024Z,10.90
2023-01-01T05:57:22.018Z,8.30
2023-01-01T05:58:22.023Z,11.30
2023-01-01T05:59:22.019Z,8.60
2023-01-01T06:00:21.998Z,7.60
2023-01-01T06:01:22.039Z,8.10
2023-01-01T06:02:22.032Z,6.40
2023-01-01T06:03:21.977Z,7.80
2023-01-01T06:04:21.990Z,7.20
2023-01-01T06:05:21.956Z,5.50
2023-01-01T06:06:21.956Z,5.30
2023-01-01T06:07:21.966Z,7.40
2023-01-01T06:08:21.955Z,7.30
2023-01-01T06:09:21.976Z,6.30
2023-01-01T06:10:21.942Z,5.80
2023-01-01T06:11:21.938Z,7.60
2023-01-01T06:12:21.936Z,7.90
2023-01-01T06:13:21.885Z,7.20
2023-01-01T06:14:21.905Z,8.20
2023-01-01T06:15:21.893Z,6.80
2023-01-01T06:16:21.912Z,8.40
2023-01-01T06:17:21.895Z,5.40
2023-01-01T06:18:21.858Z,8.30
2023-01-01T06:19:21.852Z,5.50
2023-01-01T06:20:21.840Z,7.00
2023-01-01T06:21:21.846Z,4.80
2023-01-01T06:22:21.860Z,6.30
2023-01-01T06:23:21.852Z,5.70
2023-01-01T06:24:21.815Z,7.20
2023-01-01T06:25:21.821Z,7.30
2023-01-01T06:26:21.786Z,7.60
2023-01-01T06:27:21.791Z,8.10
2023-01-01T06:28:21.780Z,6.20
2023-01-01T06:29:21.849Z,5.50
2023-01-01T06:30:21.780Z,8.10
2023-01-01T06:31:22.890Z,4.40
2023-01-01T06:32:21.750Z,8.10
2023-01-01T06:33:21.747Z,6.20
2023-01-01T06:34:21.743Z,8.40
2023-01-01T06:35:21.731Z,7.90
2023-01-01T06:36:21.738Z,6.00
2023-01-01T06:37:21.741Z,4.90
2023-01-01T06:38:21.696Z,6.60
2023-01-01T06:39:21.686Z,5.90
2023-01-01T06:40:21.696Z,6.20
2023-01-01T06:41:21.715Z,7.30
2023-01-01T06:42:22.689Z,6.10
2023-01-01T06:43:21.690Z,7.20
2023-01-01T06:44:21.640Z,7.20
2023-01-01T06:45:21.657Z,5.30
2023-01-01T06:46:21.723Z,7.10
2023-01-01T06:47:21.619Z,6.30
2023-01-01T06:48:21.631Z,8.50
2023-01-01T06:49:21.619Z,4.70
2023-01-01T06:50:21.636Z,6.10
2023-01-01T06:51:22.191Z,4.80
2023-01-01T06:52:21.598Z,8.10
2023-01-01T06:53:21.601Z,8.00
2023-01-01T06:54:21.568Z,5.70
2023-01-01T06:55:21.602Z,5.70
2023-01-01T06:56:21.574Z,5.10
2023-01-01T06:57:21.553Z,4.80
2023-01-01T06:58:21.561Z,4.60
2023-01-01T06:59:21.541Z,6.60
2023-01-01T07:00:21.574Z,7.90
2023-01-01T07:01:21.654Z,6.30
2023-01-01T07:02:21.758Z,7.20
2023-01-01T07:03:21.513Z,5.60
2023-01-01T07:04:21.513Z,4.40
2023-01-01T07:05:21.493Z,9.70
2023-01-01T07:06:21.501Z,5.90
2023-01-01T07:07:21.470Z,4.90
2023-01-01T07:08:21.471Z,6.00
2023-01-01T07:09:21.550Z,4.70
2023-01-01T07:10:23.832Z,6.90
2023-01-01T07:11:21.463Z,5.60
2023-01-01T07:12:21.438Z,5.60
2023-01-01T07:13:21.426Z,6.40
2023-01-01T07:14:21.459Z,7.20
2023-01-01T07:15:21.429Z,6.10
2023-01-01T07:16:21.424Z,5.90
2023-01-01T07:17:22.290Z,6.50
2023-01-01T07:18:21.401Z,6.80
2023-01-01T07:19:21.418Z,7.40
2023-01-01T07:20:21.390Z,3.80
2023-01-01T07:21:28.511Z,6.30
2023-01-01T07:22:23.371Z,9.40
2023-01-01T07:23:21.382Z,8.00
2023-01-01T07:24:21.355Z,9.00
2023-01-01T07:25:21.343Z,7.30
2023-01-01T07:26:21.355Z,6.50
2023-01-01T07:27:21.387Z,7.10
2023-01-01T07:28:21.357Z,5.40
2023-01-01T07:29:21.323Z,6.50
2023-01-01T07:30:21.370Z,7.20
2023-01-01T07:31:21.377Z,6.60
2023-01-01T07:32:21.291Z,8.70
2023-01-01T07:33:21.355Z,9.00
2023-01-01T07:34:21.325Z,7.50
2023-01-01T07:35:21.308Z,7.30
2023-01-01T07:36:21.270Z,6.10
2023-01-01T07:37:22.271Z,7.70
2023-01-01T07:38:21.264Z,5.90
2023-01-01T07:39:21.277Z,6.40
2023-01-01T07:40:21.226Z,5.20
2023-01-01T07:41:21.256Z,6.70
2023-01-01T07:42:21.225Z,3.80
2023-01-01T07:43:21.196Z,9.60
2023-01-01T07:44:21.195Z,4.80
2023-01-01T07:45:21.216Z,8.60
2023-01-01T07:46:21.221Z,5.50
2023-01-01T07:47:21.779Z,5.90
2023-01-01T07:48:22.175Z,4.60
2023-01-01T07:49:21.155Z,6.20
2023-01-01T07:50:21.150Z,5.70
2023-01-01T07:51:21.137Z,7.30
2023-01-01T07:52:21.152Z,9.80
2023-01-01T07:53:21.139Z,5.70
2023-01-01T07:54:21.141Z,5.70
2023-01-01T07:55:21.138Z,8.50
2023-01-01T07:56:21.112Z,7.80
2023-01-01T07:57:21.123Z,9.90
2023-01-01T07:58:21.118Z,9.70
2023-01-01T07:59:21.099Z,6.90
2023-01-01T08:00:21.085Z,7.30
2023-01-01T08:01:21.205Z,7.10
2023-01-01T08:02:21.287Z,9.70
2023-01-01T08:03:21.129Z,6.10
2023-01-01T08:04:21.039Z,6.60
2023-01-01T08:05:26.323Z,6.70
2023-01-01T08:06:23.059Z,5.60
2023-01-01T08:07:21.053Z,8.20
2023-01-01T08:08:21.024Z,7.30
2023-01-01T08:09:21.029Z,7.30
2023-01-01T08:10:21.016Z,7.10
2023-01-01T08:11:21.007Z,11.10
2023-01-01T08:12:20.981Z,5.10
2023-01-01T08:13:21.015Z,9.30
2023-01-01T08:14:52.923Z,6.90
2023-01-01T08:15:20.967Z,8.40
2023-01-01T08:16:21.076Z,8.60
2023-01-01T08:17:20.942Z,7.60
2023-01-01T08:18:20.947Z,9.00
2023-01-01T08:19:20.950Z,6.80
2023-01-01T08:20:20.941Z,6.10
2023-01-01T08:21:20.925Z,7.90
2023-01-01T08:22:20.947Z,6.50
2023-01-01T08:23:20.894Z,6.80
2023-01-01T08:24:20.915Z,8.70
2023-01-01T08:25:20.889Z,10.50
2023-01-01T08:26:20.888Z,6.30
2023-01-01T08:27:20.879Z,7.30
2023-01-01T08:28:20.887Z,5.30
2023-01-01T08:29:20.849Z,6.80
2023-01-01T08:30:20.905Z,7.80
2023-01-01T08:31:20.869Z,5.40
2023-01-01T08:32:20.828Z,6.40
2023-01-01T08:33:20.830Z,5.60
2023-01-01T08:34:20.812Z,5.20
2023-01-01T08:35:20.871Z,5.30
2023-01-01T08:36:20.832Z,4.90
2023-01-01T08:37:20.790Z,6.60
2023-01-01T08:38:53.695Z,9.30
2023-01-01T08:39:20.835Z,7.90
2023-01-01T08:40:20.787Z,8.30
2023-01-01T08:41:20.763Z,5.60
2023-01-01T08:42:20.768Z,6.90
2023-01-01T08:43:20.781Z,9.60
2023-01-01T08:44:20.744Z,6.10
2023-01-01T08:45:20.734Z,8.10
2023-01-01T08:46:20.782Z,7.50
2023-01-01T08:47:21.768Z,7.20
2023-01-01T08:48:23.172Z,8.50
2023-01-01T08:49:21.721Z,6.40
2023-01-01T08:50:20.720Z,7.60
2023-01-01T08:51:21.677Z,6.80
2023-01-01T08:52:20.696Z,6.60
2023-01-01T08:53:20.675Z,8.90
2023-01-01T08:54:20.725Z,8.00
2023-01-01T08:55:20.647Z,9.90
2023-01-01T08:56:20.763Z,5.80
2023-01-01T08:57:20.686Z,7.60
2023-01-01T08:58:20.658Z,8.60
2023-01-01T08:59:20.693Z,10.00
2023-01-01T09:00:20.662Z,7.60
2023-01-01T09:01:20.765Z,9.20
2023-01-01T09:02:20.744Z,7.30
2023-01-01T09:03:20.785Z,6.50
2023-01-01T09:04:20.648Z,5.10
2023-01-01T09:05:20.582Z,9.10
2023-01-01T09:06:20.589Z,6.20
2023-01-01T09:07:52.510Z,8.70
2023-01-01T09:08:20.582Z,4.30
2023-01-01T09:09:24.314Z,9.40
2023-01-01T09:10:21.563Z,8.90
2023-01-01T09:11:20.526Z,10.00
2023-01-01T09:12:21.524Z,7.30
2023-01-01T09:13:20.547Z,8.60
2023-01-01T09:14:20.525Z,8.00
2023-01-01T09:15:20.532Z,6.20
2023-01-01T09:16:20.536Z,5.20
2023-01-01T09:17:20.517Z,8.00
2023-01-01T09:18:20.548Z,6.80
2023-01-01T09:19:20.482Z,8.50
2023-01-01T09:20:20.487Z,6.00
2023-01-01T09:21:20.492Z,9.50
2023-01-01T09:22:20.493Z,4.60
2023-01-01T09:23:20.475Z,6.50
2023-01-01T09:24:20.455Z,5.70
2023-01-01T09:25:20.476Z,8.40
2023-01-01T09:26:20.441Z,10.00
2023-01-01T09:27:20.461Z,11.50
2023-01-01T09:28:25.428Z,8.20
2023-01-01T09:29:22.444Z,6.20
2023-01-01T09:30:20.408Z,6.50
2023-01-01T09:31:20.445Z,8.80
2023-01-01T09:32:20.387Z,7.40
2023-01-01T09:33:20.438Z,5.30
2023-01-01T09:34:20.406Z,5.30
2023-01-01T09:35:20.375Z,5.60
2023-01-01T09:36:20.377Z,9.20
2023-01-01T09:37:20.373Z,6.90
2023-01-01T09:38:52.261Z,8.10
2023-01-01T09:39:20.380Z,10.20
2023-01-01T09:40:20.972Z,6.40
2023-01-01T09:41:20.353Z,6.00
2023-01-01T09:42:20.317Z,7.30
2023-01-01T09:43:20.949Z,6.20
2023-01-01T09:44:20.311Z,7.60
2023-01-01T09:45:20.307Z,4.80
2023-01-01T09:46:20.376Z,5.70
2023-01-01T09:47:20.295Z,4.50
2023-01-01T09:48:20.263Z,9.10
2023-01-01T09:49:20.290Z,7.10
2023-01-01T09:50:20.269Z,10.70
2023-01-01T09:51:20.298Z,8.10
2023-01-01T09:52:20.244Z,7.80
2023-01-01T09:53:20.273Z,8.90
2023-01-01T09:54:20.217Z,4.80
2023-01-01T09:55:20.223Z,8.70
2023-01-01T09:56:20.284Z,8.20
2023-01-01T09:57:20.500Z,5.40
2023-01-01T09:58:21.196Z,8.20
2023-01-01T09:59:20.213Z,10.50
2023-01-01T10:00:20.179Z,7.70
2023-01-01T10:01:20.298Z,6.80
2023-01-01T10:02:20.261Z,7.90
2023-01-01T10:03:20.207Z,6.50
2023-01-01T10:04:20.234Z,7.80
2023-01-01T10:05:20.150Z,8.10
2023-01-01T10:06:20.146Z,7.60
2023-01-01T10:07:20.154Z,5.20
2023-01-01T10:08:23.495Z,5.90
2023-01-01T10:09:21.122Z,5.90
2023-01-01T10:10:20.244Z,5.90
2023-01-01T10:11:20.119Z,4.80
2023-01-01T10:12:20.107Z,9.20
2023-01-01T10:13:20.115Z,9.10
2023-01-01T10:14:20.109Z,8.00
2023-01-01T10:15:21.180Z,4.90
2023-01-01T10:16:24.424Z,7.10
2023-01-01T10:17:21.110Z,7.70
2023-01-01T10:18:20.074Z,8.10
2023-01-01T10:19:20.054Z,7.30
2023-01-01T10:20:20.080Z,6.60
2023-01-01T10:21:20.022Z,6.50
2023-01-01T10:22:20.047Z,6.70
2023-01-01T10:23:20.013Z,6.80
2023-01-01T10:24:20.000Z,7.30
2023-01-01T10:25:20.059Z,7.90
2023-01-01T10:26:19.976Z,8.50
2023-01-01T10:27:19.994Z,7.80
2023-01-01T10:28:19.973Z,8.30
2023-01-01T10:29:19.975Z,10.30
2023-01-01T10:30:19.965Z,6.70
2023-01-01T10:31:19.947Z,6.50
2023-01-01T10:32:19.935Z,8.50
2023-01-01T10:33:19.952Z,7.40
2023-01-01T10:34:19.964Z,7.30
2023-01-01T10:35:21.925Z,7.30
2023-01-01T10:36:20.904Z,6.60
2023-01-01T10:37:19.924Z,10.00
2023-01-01T10:38:19.875Z,8.90
2023-01-01T10:39:19.930Z,9.50
2023-01-01T10:40:19.891Z,8.00
2023-01-01T10:41:51.786Z,6.30
2023-01-01T10:42:20.483Z,11.00
2023-01-01T10:43:19.851Z,7.20
2023-01-01T10:44:19.835Z,8.20
2023-01-01T10:45:19.825Z,8.50
2023-01-01T10:46:51.744Z,12.00
2023-01-01T10:47:19.821Z,9.70
2023-01-01T10:48:19.875Z,6.40
2023-01-01T10:49:19.806Z,5.30
2023-01-01T10:50:19.803Z,9.00
2023-01-01T10:51:19.818Z,8.60
2023-01-01T10:52:19.762Z,10.70
2023-01-01T10:53:20.789Z,8.00
2023-01-01T10:54:19.768Z,5.20
2023-01-01T10:55:19.767Z,8.20
2023-01-01T10:56:19.735Z,5.60
2023-01-01T10:57:19.741Z,5.50
2023-01-01T10:58:19.740Z,11.70
2023-01-01T10:59:19.715Z,9.30
2023-01-01T11:00:19.743Z,9.30
2023-01-01T11:01:19.865Z,6.90
2023-01-01T11:02:19.949Z,13.20
2023-01-01T11:03:19.742Z,9.70
2023-01-01T11:04:19.720Z,7.20
2023-01-01T11:05:22.201Z,8.40
2023-01-01T11:06:20.715Z,5.60
2023-01-01T11:07:19.678Z,6.60
2023-01-01T11:08:19.659Z,11.70
2023-01-01T11:09:19.670Z,8.60
2023-01-01T11:10:19.711Z,8.90
2023-01-01T11:11:20.613Z,7.80
2023-01-01T11:12:54.511Z,9.20
2023-01-01T11:13:21.626Z,5.90
2023-01-01T11:14:19.638Z,8.80
2023-01-01T11:15:19.641Z,9.60
2023-01-01T11:16:19.642Z,9.90
2023-01-01T11:17:19.654Z,7.20
2023-01-01T11:18:19.615Z,7.20
2023-01-01T11:19:19.571Z,9.20
2023-01-01T11:20:19.613Z,8.90
2023-01-01T11:21:19.562Z,10.00
2023-01-01T11:22:19.551Z,9.30
2023-01-01T11:23:19.571Z,10.70
2023-01-01T11:24:19.550Z,9.70
2023-01-01T11:25:19.610Z,10.40
2023-01-01T11:26:19.547Z,7.90
2023-01-01T11:27:19.540Z,10.00
2023-01-01T11:28:19.557Z,5.10
2023-01-01T11:29:19.489Z,5.50
2023-01-01T11:30:19.551Z,8.30
2023-01-01T11:31:19.518Z,10.60
2023-01-01T11:32:19.507Z,8.80
2023-01-01T11:33:20.541Z,6.00
2023-01-01T11:34:19.448Z,6.60
2023-01-01T11:35:19.478Z,8.70
2023-01-01T11:36:19.490Z,9.80
2023-01-01T11:37:19.448Z,8.00
2023-01-01T11:38:23.114Z,6.60
2023-01-01T11:39:20.442Z,6.50
2023-01-01T11:40:19.412Z,7.80
2023-01-01T11:41:19.410Z,6.70
2023-01-01T11:42:19.413Z,8.40
2023-01-01T11:43:19.371Z,6.30
2023-01-01T11:44:19.411Z,9.20
2023-01-01T11:45:19.412Z,7.40
2023-01-01T11:46:19.378Z,6.50
2023-01-01T11:47:19.383Z,7.70
2023-01-01T11:48:19.353Z,5.60
2023-01-01T11:49:19.391Z,6.00
2023-01-01T11:50:19.379Z,7.80
2023-01-01T11:51:19.342Z,7.30
2023-01-01T11:52:19.316Z,10.10
2023-01-01T11:53:19.325Z,7.10
2023-01-01T11:54:19.305Z,7.50
2023-01-01T11:55:19.308Z,5.70
2023-01-01T11:56:19.286Z,6.10
2023-01-01T11:57:19.330Z,7.10
2023-01-01T11:58:20.083Z,8.30
2023-01-01T11:59:20.267Z,7.10
2023-01-01T12:00:19.331Z,8.00
2023-01-01T12:01:20.144Z,9.30
2023-01-01T12:02:19.350Z,6.10
2023-01-01T12:03:19.257Z,10.20
2023-01-01T12:04:19.324Z,8.20
2023-01-01T12:05:19.244Z,7.50
2023-01-01T12:06:19.222Z,9.90
2023-01-01T12:07:19.204Z,10.50
2023-01-01T12:08:19.194Z,9.10
2023-01-01T12:09:20.199Z,7.40
2023-01-01T12:10:19.220Z,7.60
2023-01-01T12:11:20.057Z,8.90
2023-01-01T12:12:19.202Z,11.00
2023-01-01T12:13:19.157Z,9.30
2023-01-01T12:14:19.152Z,7.50
2023-01-01T12:15:19.166Z,10.80
2023-01-01T12:16:19.182Z,10.10
2023-01-01T12:17:19.149Z,12.60
2023-01-01T12:18:19.135Z,12.00
2023-01-01T12:19:19.121Z,8.90
2023-01-01T12:20:19.147Z,11.00
2023-01-01T12:21:19.133Z,11.30
2023-01-01T12:22:19.116Z,12.40
2023-01-01T12:23:19.110Z,10.40
2023-01-01T12:24:19.119Z,8.00
2023-01-01T12:25:19.062Z,10.50
2023-01-01T12:26:19.056Z,9.70
2023-01-01T12:27:19.070Z,8.50
2023-01-01T12:28:19.051Z,9.60
2023-01-01T12:29:19.048Z,11.60
2023-01-01T12:30:19.049Z,10.60
2023-01-01T12:31:19.123Z,9.50
2023-01-01T12:32:19.033Z,9.50
2023-01-01T12:33:19.028Z,9.90
2023-01-01T12:34:18.997Z,8.10
2023-01-01T12:35:19.010Z,12.10
2023-01-01T12:36:19.013Z,5.60
2023-01-01T12:37:18.984Z,6.80
2023-01-01T12:38:19.001Z,10.00
2023-01-01T12:39:18.993Z,9.20
2023-01-01T12:40:24.371Z,8.40
2023-01-01T12:41:20.947Z,9.30
2023-01-01T12:42:18.953Z,8.30
2023-01-01T12:43:18.935Z,9.90
2023-01-01T12:44:18.971Z,9.40
2023-01-01T12:45:19.607Z,9.40
2023-01-01T12:46:18.987Z,7.10
2023-01-01T12:47:18.953Z,10.30
2023-01-01T12:48:18.957Z,9.30
2023-01-01T12:49:19.472Z,8.00
2023-01-01T12:50:18.923Z,9.50
2023-01-01T12:51:18.889Z,9.00
2023-01-01T12:52:18.886Z,10.00
2023-01-01T12:53:18.886Z,11.20
2023-01-01T12:54:18.844Z,7.60
2023-01-01T12:55:18.907Z,9.90
2023-01-01T12:56:22.871Z,11.00
2023-01-01T12:57:19.842Z,12.00
2023-01-01T12:58:18.865Z,12.60
2023-01-01T12:59:18.837Z,6.00
2023-01-01T13:00:18.839Z,9.30
2023-01-01T13:01:19.610Z,8.30
2023-01-01T13:02:18.811Z,7.20
2023-01-01T13:03:19.685Z,6.60
2023-01-01T13:04:18.900Z,8.00
2023-01-01T13:05:18.771Z,8.90
2023-01-01T13:06:23.422Z,10.40
2023-01-01T13:07:19.773Z,11.00
2023-01-01T13:08:18.789Z,7.90
2023-01-01T13:09:18.757Z,11.10
2023-01-01T13:10:18.734Z,8.10
2023-01-01T13:11:19.764Z,12.00
2023-01-01T13:12:18.712Z,8.60
2023-01-01T13:13:18.768Z,10.40
2023-01-01T13:14:18.723Z,9.00
2023-01-01T13:15:18.688Z,10.80
2023-01-01T13:16:18.714Z,9.90
2023-01-01T13:17:18.706Z,8.50
2023-01-01T13:18:18.657Z,10.50
2023-01-01T13:19:18.646Z,7.10
2023-01-01T13:20:18.669Z,8.90
2023-01-01T13:21:18.681Z,8.40
2023-01-01T13:22:18.653Z,9.10
2023-01-01T13:23:18.650Z,8.00
2023-01-01T13:24:18.634Z,6.40
2023-01-01T13:25:18.613Z,10.10
2023-01-01T13:26:18.660Z,11.60
2023-01-01T13:27:18.611Z,12.60
2023-01-01T13:28:18.583Z,10.20
2023-01-01T13:29:18.592Z,11.70
2023-01-01T13:30:18.774Z,8.60
2023-01-01T13:31:18.625Z,7.40
2023-01-01T13:32:18.609Z,9.90